TAF MHLM
COR MHLM 280530Z 2806/2906 VRB04KT 9999 FEW026 TX29/2821Z TN20/2812Z BECMG 2819/2821 02010KT BECMG 2901/2903 VRB03KT=
METAR MHLM
MHLM 280900Z 25005KT 9999 SCT024 20/18 Q1015 A2999 NOSIG=
MHLM 280800Z 25003KT 9999 FEW024 SCT070 20/19 Q1016 A3002 NOSIG=
MHLM 280700Z 22004KT 9999 FEW024 SCT070 20/19 Q1016 A3002 NOSIG=
MHLM 280600Z 27003KT 9999 FEW024 BKN070 20/19 Q1017 A3004 NOSIG=
MHLM 280500Z 28004KT 9999 FEW024 21/19 Q1017 A3004 NOSIG=
WC MHLM
WS MHLM
WV MHLM